Time;durP1;ratioP1;P1;durP2;ratioP2;P2;SDS_P1;SDS_P2;PMS_P1;PMS_P2;Temp;Humidity;BMP_temperature;BMP_pressure;BME280_temperature;BME280_humidity;BME280_pressure;Samples;Min_cycle;Max_cycle;Signal;HPM_P1;HPM_P2
2021/04/07 00:00:04;;;;;;;2.40;2.20;;;5.40;59.40;;;;;;5026051;28;20435;-41
2021/04/07 00:02:30;;;;;;;2.33;2.13;;;5.30;59.50;;;;;;5025706;28;20547;-41
2021/04/07 00:05:09;;;;;;;4.37;2.90;;;5.40;59.60;;;;;;5022816;28;20990;-42
2021/04/07 00:07:34;;;;;;;4.00;2.70;;;5.50;59.60;;;;;;5029807;28;20420;-41
2021/04/07 00:10:00;;;;;;;2.63;2.30;;;5.30;59.60;;;;;;5032826;28;20801;-41
2021/04/07 00:12:26;;;;;;;7.53;2.73;;;5.40;59.90;;;;;;5033418;28;20197;-41
2021/04/07 00:14:53;;;;;;;3.13;2.83;;;5.50;59.90;;;;;;5022195;28;20853;-41
2021/04/07 00:17:18;;;;;;;3.87;3.50;;;5.50;60.00;;;;;;5026078;28;20197;-41
2021/04/07 00:19:44;;;;;;;4.83;2.80;;;5.60;60.10;;;;;;5033123;28;20486;-41
2021/04/07 00:22:09;;;;;;;3.53;3.07;;;5.80;59.60;;;;;;5033521;28;20220;-41
2021/04/07 00:24:35;;;;;;;2.63;2.43;;;5.60;59.50;;;;;;5026527;28;20222;-41
2021/04/07 00:27:06;;;;;;;3.20;2.80;;;5.60;59.70;;;;;;5027357;28;20638;-41
2021/04/07 00:29:32;;;;;;;6.20;2.80;;;5.70;59.80;;;;;;5033279;28;20197;-41
2021/04/07 00:31:58;;;;;;;3.77;3.03;;;5.70;59.50;;;;;;5029324;28;20985;-41
2021/04/07 00:34:23;;;;;;;5.00;3.00;;;5.90;59.10;;;;;;5033598;28;20205;-42
2021/04/07 00:36:49;;;;;;;3.40;3.10;;;5.50;58.70;;;;;;5030188;28;20228;-41
2021/04/07 00:39:14;;;;;;;3.97;3.03;;;5.50;59.40;;;;;;5024192;28;20230;-41
2021/04/07 00:41:40;;;;;;;2.90;2.70;;;5.50;59.20;;;;;;5033241;28;20700;-41
2021/04/07 00:44:06;;;;;;;4.70;2.47;;;5.30;58.90;;;;;;5020533;28;20225;-41
2021/04/07 00:46:35;;;;;;;4.10;2.37;;;5.20;59.40;;;;;;5032749;28;20626;-42
2021/04/07 00:49:01;;;;;;;5.70;2.63;;;5.30;59.60;;;;;;5029322;28;20457;-41
2021/04/07 00:51:27;;;;;;;3.93;2.27;;;5.40;59.80;;;;;;5025199;28;20441;-41
2021/04/07 00:53:53;;;;;;;3.40;2.97;;;5.40;59.70;;;;;;5033221;28;20466;-41
2021/04/07 00:56:19;;;;;;;4.10;2.67;;;5.30;59.80;;;;;;5020974;28;20490;-41
2021/04/07 00:58:45;;;;;;;2.93;2.60;;;5.20;59.80;;;;;;5027045;28;20952;-41
2021/04/07 01:01:11;;;;;;;4.50;2.50;;;5.30;59.90;;;;;;5023422;28;20237;-42
2021/04/07 01:03:36;;;;;;;4.70;3.10;;;5.30;59.80;;;;;;5027374;28;20439;-41
2021/04/07 01:06:03;;;;;;;3.23;2.60;;;5.30;59.60;;;;;;5032533;28;20201;-41
2021/04/07 01:08:28;;;;;;;3.00;2.80;;;5.30;59.80;;;;;;5026205;28;20190;-41
2021/04/07 01:10:54;;;;;;;2.93;2.60;;;5.30;60.40;;;;;;5031219;28;20798;-41
2021/04/07 01:13:19;;;;;;;3.97;2.57;;;5.40;60.30;;;;;;5031083;28;20193;-41
2021/04/07 01:15:45;;;;;;;5.90;2.30;;;5.20;60.50;;;;;;5031209;28;20327;-41
2021/04/07 01:18:11;;;;;;;3.03;2.80;;;5.20;61.10;;;;;;5025901;28;20205;-41
2021/04/07 01:20:37;;;;;;;3.53;2.67;;;5.40;61.00;;;;;;5014361;28;20232;-41
2021/04/07 01:23:03;;;;;;;2.70;2.50;;;5.60;60.60;;;;;;5025456;28;20206;-41
2021/04/07 01:25:30;;;;;;;3.40;2.90;;;5.40;59.90;;;;;;5026282;28;20200;-41
2021/04/07 01:27:56;;;;;;;2.30;2.10;;;5.60;60.10;;;;;;5026479;28;20428;-41
2021/04/07 01:30:22;;;;;;;3.13;2.50;;;5.70;59.90;;;;;;5027694;28;20439;-41
2021/04/07 01:32:48;;;;;;;2.60;2.40;;;5.60;59.70;;;;;;5025188;28;20532;-42
2021/04/07 01:35:16;;;;;;;3.00;2.70;;;5.60;60.00;;;;;;5029697;28;20543;-41
2021/04/07 01:37:41;;;;;;;2.67;2.47;;;5.50;59.90;;;;;;5032000;28;20225;-41
2021/04/07 01:40:12;;;;;;;4.23;2.60;;;5.40;60.10;;;;;;5030440;28;20454;-41
2021/04/07 01:42:41;;;;;;;3.10;2.80;;;5.50;60.00;;;;;;5030834;28;20202;-42
2021/04/07 01:45:08;;;;;;;10.77;3.33;;;5.60;59.80;;;;;;5032720;28;21004;-41
2021/04/07 01:47:34;;;;;;;3.20;2.80;;;5.70;59.70;;;;;;5030786;28;20494;-41
2021/04/07 01:50:01;;;;;;;3.23;2.70;;;5.90;59.40;;;;;;5031134;28;20447;-41
2021/04/07 01:52:28;;;;;;;2.93;2.73;;;5.80;59.00;;;;;;5031277;28;20439;-44
2021/04/07 01:54:54;;;;;;;8.23;3.63;;;5.90;58.90;;;;;;5019178;28;20455;-41
2021/04/07 01:57:20;;;;;;;4.63;4.23;;;6.00;58.40;;;;;;5027214;28;20428;-41
2021/04/07 01:59:45;;;;;;;4.20;2.93;;;5.80;58.00;;;;;;5032068;28;20981;-42
2021/04/07 02:02:11;;;;;;;4.43;3.27;;;5.80;57.90;;;;;;5030003;28;20224;-41
2021/04/07 02:04:36;;;;;;;3.70;2.87;;;5.60;57.80;;;;;;5027156;28;20205;-41
2021/04/07 02:07:12;;;;;;;3.93;3.10;;;5.50;57.80;;;;;;5026431;28;20637;-41
2021/04/07 02:09:38;;;;;;;3.63;3.03;;;5.50;57.70;;;;;;5031597;28;20220;-41
2021/04/07 02:12:04;;;;;;;5.80;3.37;;;5.60;57.70;;;;;;5021042;28;20483;-41
2021/04/07 02:14:31;;;;;;;4.93;3.37;;;5.70;57.50;;;;;;5019690;28;20200;-42
2021/04/07 02:16:58;;;;;;;5.87;2.90;;;5.60;57.20;;;;;;5021264;28;20844;-41
2021/04/07 02:19:26;;;;;;;3.40;3.10;;;5.60;57.30;;;;;;5026864;28;20807;-41
2021/04/07 02:22:10;;;;;;;3.30;3.00;;;5.70;57.40;;;;;;5030250;28;20521;-41
2021/04/07 02:24:37;;;;;;;4.73;3.47;;;5.80;57.00;;;;;;5014322;28;20454;-41
2021/04/07 02:27:17;;;;;;;4.67;3.70;;;5.80;56.80;;;;;;5029744;28;20472;-41
2021/04/07 02:29:45;;;;;;;6.80;3.40;;;5.80;56.70;;;;;;5023124;28;20433;-41
2021/04/07 02:32:11;;;;;;;5.90;4.53;;;5.70;56.60;;;;;;5016445;28;20958;-41
2021/04/07 02:34:37;;;;;;;5.10;3.70;;;5.70;56.80;;;;;;5021113;28;20468;-41
2021/04/07 02:37:03;;;;;;;4.50;3.73;;;5.70;57.10;;;;;;5027421;28;20326;-42
2021/04/07 02:39:29;;;;;;;4.80;3.77;;;5.70;56.80;;;;;;5027653;28;20872;-41
2021/04/07 02:41:54;;;;;;;5.90;3.73;;;5.80;56.70;;;;;;5027048;28;21075;-41
2021/04/07 02:44:20;;;;;;;3.90;3.50;;;5.70;56.40;;;;;;5026557;28;20193;-41
2021/04/07 02:46:46;;;;;;;5.10;3.87;;;5.70;56.40;;;;;;5021373;28;20554;-41
2021/04/07 02:49:11;;;;;;;5.40;3.80;;;5.60;56.50;;;;;;5026132;28;20701;-41
2021/04/07 02:51:37;;;;;;;4.10;3.47;;;5.70;56.50;;;;;;5025671;28;20637;-41
2021/04/07 02:54:03;;;;;;;8.60;4.50;;;5.80;56.50;;;;;;5022901;28;20193;-41
2021/04/07 02:56:30;;;;;;;5.20;4.70;;;5.80;56.40;;;;;;5029732;28;20247;-41
2021/04/07 02:58:56;;;;;;;4.30;3.60;;;5.60;56.30;;;;;;5029012;28;20443;-42
2021/04/07 03:01:22;;;;;;;4.27;3.80;;;5.70;56.20;;;;;;5030099;28;20486;-41
2021/04/07 03:03:48;;;;;;;6.47;4.00;;;5.70;56.20;;;;;;5030501;28;20798;-42
2021/04/07 03:06:13;;;;;;;4.80;4.30;;;5.70;56.20;;;;;;5028277;28;20201;-41
2021/04/07 03:08:39;;;;;;;6.30;4.13;;;5.70;56.30;;;;;;5022338;28;20197;-41
2021/04/07 03:11:05;;;;;;;6.47;5.00;;;5.70;56.10;;;;;;5029301;28;20193;-41
2021/04/07 03:13:30;;;;;;;4.27;3.60;;;5.60;56.20;;;;;;5026687;28;20280;-41
2021/04/07 03:15:56;;;;;;;4.67;3.97;;;5.50;56.10;;;;;;5016292;28;20939;-42
2021/04/07 03:18:21;;;;;;;5.13;4.07;;;5.40;56.30;;;;;;5028336;28;20240;-41
2021/04/07 03:20:47;;;;;;;7.10;5.20;;;5.50;56.30;;;;;;5028913;28;20255;-41
2021/04/07 03:23:13;;;;;;;6.47;4.00;;;5.40;56.30;;;;;;5021846;28;20201;-41
2021/04/07 03:25:38;;;;;;;5.17;4.30;;;5.40;56.30;;;;;;5029310;28;20189;-41
2021/04/07 03:28:04;;;;;;;4.90;4.40;;;5.30;56.30;;;;;;5017806;28;20652;-41
2021/04/07 03:30:48;;;;;;;6.33;4.70;;;5.20;56.70;;;;;;5030161;28;20259;-41
2021/04/07 03:33:24;;;;;;;8.17;4.77;;;5.10;57.10;;;;;;5030322;28;20246;-41
2021/04/07 03:35:51;;;;;;;5.40;4.67;;;5.30;57.10;;;;;;5027108;28;20448;-42
2021/04/07 03:38:17;;;;;;;4.97;3.80;;;5.50;56.80;;;;;;5018703;28;20531;-41
2021/04/07 03:40:45;;;;;;;6.30;4.07;;;5.20;56.70;;;;;;5028581;28;20991;-41
2021/04/07 03:43:12;;;;;;;4.63;4.20;;;5.10;57.10;;;;;;5029179;28;20790;-41
2021/04/07 03:45:52;;;;;;;6.47;3.97;;;4.90;57.50;;;;;;5024287;28;21014;-41
2021/04/07 03:48:20;;;;;;;4.90;4.13;;;4.90;57.70;;;;;;5027065;28;20468;-41
2021/04/07 03:50:47;;;;;;;4.30;3.73;;;5.00;57.50;;;;;;5027481;28;20502;-41
2021/04/07 03:53:14;;;;;;;5.80;3.50;;;4.80;57.30;;;;;;5026467;28;20451;-41
2021/04/07 03:55:41;;;;;;;4.60;3.40;;;4.80;57.30;;;;;;5022559;28;20478;-41
2021/04/07 03:58:07;;;;;;;4.20;3.60;;;4.60;57.50;;;;;;5027883;28;22226;-41
2021/04/07 04:00:32;;;;;;;4.90;3.80;;;4.80;57.90;;;;;;5025786;28;20468;-41
2021/04/07 04:02:58;;;;;;;5.97;4.63;;;4.90;57.50;;;;;;5027204;28;20440;-41
2021/04/07 04:05:24;;;;;;;6.00;3.53;;;4.80;57.20;;;;;;5027671;28;20239;-41
2021/04/07 04:07:50;;;;;;;4.17;3.30;;;4.80;57.10;;;;;;5026119;28;20218;-41
2021/04/07 04:10:15;;;;;;;5.13;3.70;;;4.80;57.40;;;;;;5026999;28;20432;-41
2021/04/07 04:12:42;;;;;;;4.80;3.70;;;4.90;57.40;;;;;;5027166;28;20247;-41
2021/04/07 04:15:10;;;;;;;3.00;2.70;;;4.90;57.20;;;;;;5019899;28;20198;-41
2021/04/07 04:17:39;;;;;;;3.50;3.20;;;4.80;57.20;;;;;;5026879;28;20443;-41
2021/04/07 04:20:06;;;;;;;4.70;3.17;;;4.80;57.20;;;;;;5016915;28;20433;-41
2021/04/07 04:22:32;;;;;;;5.20;3.63;;;4.90;57.70;;;;;;5025163;28;20482;-41
2021/04/07 04:24:58;;;;;;;6.17;3.60;;;5.20;56.90;;;;;;5027741;28;20464;-41
2021/04/07 04:27:23;;;;;;;34.30;24.40;;;5.30;56.30;;;;;;5027116;28;20873;-42
2021/04/07 04:29:49;;;;;;;7.33;6.40;;;5.30;55.80;;;;;;5029129;28;20247;-41
2021/04/07 04:32:14;;;;;;;3.83;3.13;;;5.20;55.80;;;;;;5023252;28;20569;-41
2021/04/07 04:34:40;;;;;;;4.87;3.00;;;5.00;55.90;;;;;;5027519;28;20220;-41
2021/04/07 04:37:06;;;;;;;3.30;3.00;;;5.10;56.10;;;;;;5025062;28;20244;-41
2021/04/07 04:39:32;;;;;;;6.13;3.63;;;4.90;56.10;;;;;;5025602;28;20244;-41
2021/04/07 04:41:57;;;;;;;3.63;3.33;;;4.80;56.30;;;;;;5026034;28;20598;-41
2021/04/07 04:44:23;;;;;;;5.97;2.83;;;4.90;56.50;;;;;;5026089;28;20527;-41
2021/04/07 04:46:48;;;;;;;5.30;2.93;;;5.00;56.10;;;;;;5029273;28;20591;-41
2021/04/07 04:49:14;;;;;;;3.87;2.73;;;5.10;56.10;;;;;;5029349;28;20271;-41
2021/04/07 04:51:40;;;;;;;4.73;2.40;;;5.20;55.80;;;;;;5031753;28;20190;-41
2021/04/07 04:54:06;;;;;;;5.67;3.00;;;4.80;55.40;;;;;;5033244;28;20280;-41
2021/04/07 04:56:31;;;;;;;3.10;2.70;;;4.80;55.80;;;;;;5029818;28;20435;-41
2021/04/07 04:58:57;;;;;;;4.30;2.07;;;4.80;55.90;;;;;;5032306;28;20189;-41
2021/04/07 05:01:22;;;;;;;3.10;2.50;;;4.90;55.70;;;;;;5026332;28;20232;-41
2021/04/07 05:03:48;;;;;;;3.47;3.00;;;5.00;55.90;;;;;;5028546;28;20196;-41
2021/04/07 05:06:14;;;;;;;4.00;2.90;;;5.00;55.90;;;;;;5028604;28;20224;-41
2021/04/07 05:08:39;;;;;;;3.57;2.87;;;5.10;55.50;;;;;;5029636;28;20608;-41
2021/04/07 05:11:05;;;;;;;3.17;2.80;;;5.00;55.60;;;;;;5026931;28;20672;-41
2021/04/07 05:13:31;;;;;;;3.57;2.60;;;4.80;55.70;;;;;;5030880;28;20193;-41
2021/04/07 05:15:56;;;;;;;3.23;2.57;;;4.80;55.60;;;;;;5025626;28;20276;-41
2021/04/07 05:18:23;;;;;;;3.13;2.47;;;4.70;55.50;;;;;;5029919;28;20608;-40
2021/04/07 05:20:49;;;;;;;2.80;2.20;;;4.70;56.30;;;;;;5029862;28;20229;-40
2021/04/07 05:23:14;;;;;;;3.67;2.90;;;4.90;56.20;;;;;;5024685;28;20437;-40
2021/04/07 05:25:40;;;;;;;4.90;2.63;;;4.90;55.90;;;;;;5021016;28;20185;-40
2021/04/07 05:28:07;;;;;;;2.37;1.97;;;5.10;56.00;;;;;;5030583;28;20197;-40
2021/04/07 05:33:20;;;;;;;3.90;2.30;;;5.30;55.20;;;;;;5026603;28;20447;-40
2021/04/07 05:35:45;;;;;;;3.40;2.60;;;5.40;55.20;;;;;;5026050;28;20467;-40
2021/04/07 05:38:11;;;;;;;2.97;2.40;;;5.50;54.70;;;;;;5030280;28;20476;-40
2021/04/07 05:40:37;;;;;;;2.43;2.23;;;5.40;54.20;;;;;;5027779;28;20245;-40
2021/04/07 05:43:04;;;;;;;7.47;2.70;;;5.40;54.60;;;;;;5029140;28;20272;-40
2021/04/07 05:45:30;;;;;;;3.17;2.30;;;5.50;54.20;;;;;;5031280;28;20200;-40
2021/04/07 05:47:55;;;;;;;2.40;2.17;;;5.60;53.70;;;;;;5030275;28;20436;-40
2021/04/07 05:50:21;;;;;;;3.13;2.20;;;5.30;53.50;;;;;;5025584;28;20811;-40
2021/04/07 05:52:51;;;;;;;3.80;2.80;;;5.20;54.20;;;;;;5027932;28;20617;-40
2021/04/07 05:55:17;;;;;;;6.80;2.50;;;5.50;54.50;;;;;;5026874;28;20194;-40
2021/04/07 05:57:43;;;;;;;3.10;2.47;;;5.50;54.10;;;;;;5031440;28;20432;-40
2021/04/07 06:00:10;;;;;;;3.77;2.50;;;5.40;54.00;;;;;;5028726;28;21078;-40
2021/04/07 06:02:35;;;;;;;5.67;2.67;;;5.30;54.10;;;;;;5023241;28;20228;-40
2021/04/07 06:05:01;;;;;;;4.57;2.90;;;5.40;54.10;;;;;;5022918;28;20872;-41
2021/04/07 06:07:27;;;;;;;3.83;3.53;;;5.20;53.80;;;;;;5022510;28;20722;-40
2021/04/07 06:09:52;;;;;;;3.60;2.70;;;5.10;54.10;;;;;;5031431;28;20220;-40
2021/04/07 06:12:18;;;;;;;3.23;2.30;;;4.90;54.00;;;;;;5031703;28;20199;-40
2021/04/07 06:14:43;;;;;;;10.03;2.80;;;5.00;54.60;;;;;;5021283;28;20236;-40
2021/04/07 06:17:09;;;;;;;3.33;2.67;;;4.90;54.20;;;;;;5021543;28;20206;-40
2021/04/07 06:19:35;;;;;;;3.77;2.20;;;5.00;54.40;;;;;;5028470;28;20247;-40
2021/04/07 06:22:01;;;;;;;2.93;2.63;;;5.10;53.90;;;;;;5029717;28;20719;-40
2021/04/07 06:24:26;;;;;;;2.60;2.40;;;5.20;53.70;;;;;;5025698;28;20193;-40
2021/04/07 06:26:52;;;;;;;4.03;3.13;;;5.10;53.20;;;;;;5028037;28;20486;-40
2021/04/07 06:29:18;;;;;;;2.67;2.47;;;5.00;53.60;;;;;;5028102;28;20201;-40
2021/04/07 06:31:43;;;;;;;2.83;2.27;;;5.00;53.40;;;;;;5023854;28;20197;-40
2021/04/07 06:34:09;;;;;;;4.63;2.80;;;4.90;53.40;;;;;;5029589;28;20431;-40
2021/04/07 06:36:35;;;;;;;3.50;2.97;;;4.90;53.50;;;;;;5029691;28;20688;-40
2021/04/07 06:39:01;;;;;;;6.30;2.63;;;4.90;53.80;;;;;;5025362;28;20527;-39
2021/04/07 06:41:26;;;;;;;3.50;2.40;;;4.90;53.30;;;;;;5030610;28;20274;-39
2021/04/07 06:43:54;;;;;;;5.27;3.00;;;5.20;53.20;;;;;;5015221;28;20292;-40
2021/04/07 06:46:23;;;;;;;4.00;3.30;;;5.10;52.60;;;;;;5019574;28;20190;-40
2021/04/07 06:48:53;;;;;;;3.90;2.37;;;5.50;53.10;;;;;;5011969;28;20433;-42
2021/04/07 06:51:21;;;;;;;6.27;2.40;;;5.80;52.40;;;;;;5018753;28;20460;-39
2021/04/07 06:53:51;;;;;;;4.57;3.40;;;6.00;51.90;;;;;;5013404;28;20432;-39
2021/04/07 06:56:18;;;;;;;6.10;2.70;;;5.90;50.90;;;;;;5015709;28;20952;-40
2021/04/07 06:58:45;;;;;;;2.10;1.90;;;5.90;51.10;;;;;;5011738;28;20425;-39
2021/04/07 07:01:11;;;;;;;4.03;2.13;;;5.70;51.30;;;;;;5021624;28;20476;-39
2021/04/07 07:03:37;;;;;;;3.10;2.30;;;5.60;50.50;;;;;;5019034;28;20471;-39
2021/04/07 07:06:02;;;;;;;3.80;2.00;;;5.70;50.80;;;;;;5026705;28;20878;-39
2021/04/07 07:08:31;;;;;;;6.10;2.13;;;5.80;51.20;;;;;;5024818;28;20197;-39
2021/04/07 07:11:09;;;;;;;2.50;1.80;;;5.80;50.90;;;;;;5011085;28;20202;-40
2021/04/07 07:13:34;;;;;;;4.50;2.50;;;6.10;50.90;;;;;;5023930;28;20518;-39
2021/04/07 07:16:00;;;;;;;4.30;1.77;;;6.00;49.60;;;;;;5031128;28;20515;-40
2021/04/07 07:18:27;;;;;;;4.20;1.60;;;5.90;49.30;;;;;;5022721;28;20190;-39
2021/04/07 07:20:54;;;;;;;4.13;2.23;;;5.90;49.60;;;;;;5010895;28;20256;-39
2021/04/07 07:23:29;;;;;;;5.40;1.70;;;6.10;50.10;;;;;;5013572;28;20450;-40
2021/04/07 07:25:55;;;;;;;3.63;2.47;;;6.20;49.60;;;;;;5010895;28;20428;-39
2021/04/07 07:28:23;;;;;;;4.30;1.87;;;6.20;49.20;;;;;;5009949;28;20499;-40
2021/04/07 07:30:48;;;;;;;3.33;1.80;;;6.30;49.20;;;;;;5015027;28;20460;-39
2021/04/07 07:33:16;;;;;;;3.60;1.90;;;6.10;48.20;;;;;;5025930;28;20431;-39
2021/04/07 07:35:43;;;;;;;2.13;1.57;;;6.30;48.30;;;;;;5027052;28;20701;-39
2021/04/07 07:38:08;;;;;;;5.47;1.70;;;6.40;48.10;;;;;;5010801;28;20486;-40
2021/04/07 07:40:34;;;;;;;2.67;1.47;;;6.20;47.70;;;;;;5026902;28;21255;-40
2021/04/07 07:43:00;;;;;;;4.37;2.37;;;6.20;47.90;;;;;;5031060;28;20711;-39
2021/04/07 07:45:36;;;;;;;4.07;1.67;;;6.30;47.90;;;;;;5030002;28;20205;-40
2021/04/07 07:48:09;;;;;;;2.50;1.63;;;6.10;47.00;;;;;;5019322;28;20541;-39
2021/04/07 07:50:42;;;;;;;4.37;1.70;;;6.30;48.00;;;;;;5013682;28;20455;-40
2021/04/07 07:53:20;;;;;;;5.70;1.73;;;6.20;47.20;;;;;;5025363;28;20420;-39
2021/04/07 07:55:51;;;;;;;2.40;2.13;;;6.10;47.40;;;;;;5024421;28;20444;-40
2021/04/07 07:58:17;;;;;;;5.40;1.60;;;6.20;47.80;;;;;;5025479;28;20436;-39
2021/04/07 08:00:43;;;;;;;3.20;1.70;;;6.20;47.50;;;;;;5028178;28;20475;-40
2021/04/07 08:03:15;;;;;;;3.40;1.67;;;6.30;47.60;;;;;;5025054;28;21310;-40
2021/04/07 08:05:43;;;;;;;2.77;1.93;;;6.30;47.40;;;;;;5024733;28;20220;-39
2021/04/07 08:08:10;;;;;;;2.13;1.93;;;6.20;47.50;;;;;;5029004;28;21012;-40
2021/04/07 08:10:37;;;;;;;3.63;2.00;;;6.00;47.70;;;;;;5024281;28;20436;-39
2021/04/07 08:13:04;;;;;;;3.87;2.20;;;6.00;48.70;;;;;;5026963;28;20440;-40
2021/04/07 08:15:31;;;;;;;3.10;1.70;;;5.70;47.70;;;;;;5029383;28;20440;-40
2021/04/07 08:17:58;;;;;;;3.63;1.90;;;5.70;48.50;;;;;;5027980;28;20806;-40
2021/04/07 08:20:25;;;;;;;2.53;1.60;;;5.60;48.60;;;;;;5029076;28;20431;-40
2021/04/07 08:22:53;;;;;;;8.30;2.47;;;5.50;48.60;;;;;;5023219;28;20786;-40
2021/04/07 08:25:20;;;;;;;3.97;1.80;;;5.60;48.50;;;;;;5027422;28;20800;-40
2021/04/07 08:27:52;;;;;;;3.13;1.60;;;5.80;47.80;;;;;;5031957;28;20498;-40
2021/04/07 08:30:20;;;;;;;1.73;1.63;;;5.90;48.10;;;;;;5033249;28;20443;-40
2021/04/07 08:32:48;;;;;;;3.33;2.47;;;5.70;47.60;;;;;;5028059;28;20450;-40
2021/04/07 08:35:15;;;;;;;2.40;1.60;;;5.70;48.20;;;;;;5024241;28;20438;-40
2021/04/07 08:37:40;;;;;;;3.80;1.60;;;6.00;48.60;;;;;;5027409;28;20967;-40
2021/04/07 08:40:18;;;;;;;4.60;1.83;;;6.00;48.20;;;;;;5024624;28;20419;-40
2021/04/07 08:42:44;;;;;;;2.50;1.37;;;6.20;47.80;;;;;;5033246;28;20224;-40
2021/04/07 08:45:14;;;;;;;6.80;2.90;;;6.10;47.50;;;;;;5029216;28;20463;-41
2021/04/07 08:48:02;;;;;;;1.73;1.63;;;6.00;47.20;;;;;;5028114;28;20542;-40
2021/04/07 08:50:30;;;;;;;7.50;1.90;;;5.80;47.60;;;;;;5017308;28;20447;-39
2021/04/07 08:52:56;;;;;;;4.07;2.20;;;5.80;48.40;;;;;;5022179;28;20439;-40
2021/04/07 08:55:27;;;;;;;3.57;1.67;;;5.60;48.50;;;;;;5018208;28;20440;-40
2021/04/07 08:58:06;;;;;;;3.73;1.73;;;5.40;48.80;;;;;;5030230;28;20471;-40
2021/04/07 09:00:35;;;;;;;1.90;1.67;;;5.60;49.50;;;;;;5029714;28;20432;-40
2021/04/07 09:03:14;;;;;;;3.20;1.70;;;5.90;49.10;;;;;;5023024;28;20439;-39
2021/04/07 09:05:45;;;;;;;1.70;1.60;;;5.90;48.30;;;;;;5019424;28;20454;-40
2021/04/07 09:08:24;;;;;;;2.17;1.70;;;5.80;48.00;;;;;;5028629;28;21045;-40
2021/04/07 09:10:55;;;;;;;1.63;1.53;;;5.40;47.70;;;;;;5030742;28;20440;-40
2021/04/07 09:13:24;;;;;;;2.63;1.60;;;5.70;48.50;;;;;;5028835;28;20435;-40
2021/04/07 09:15:52;;;;;;;1.60;1.50;;;5.70;48.00;;;;;;5028601;28;20453;-40
2021/04/07 09:18:31;;;;;;;3.43;2.00;;;5.70;47.90;;;;;;5026348;28;20468;-40
2021/04/07 09:20:57;;;;;;;3.10;1.87;;;5.70;48.30;;;;;;5021297;28;20490;-40
2021/04/07 09:23:32;;;;;;;1.67;1.57;;;5.50;49.40;;;;;;5024605;28;20490;-39
2021/04/07 09:26:11;;;;;;;1.63;1.50;;;5.50;50.20;;;;;;5027256;28;20436;-40
2021/04/07 09:28:58;;;;;;;2.30;1.80;;;5.30;50.10;;;;;;5024627;28;20439;-40
2021/04/07 09:31:25;;;;;;;3.97;2.00;;;5.60;51.10;;;;;;5022287;28;20873;-40
2021/04/07 09:33:53;;;;;;;2.90;1.90;;;5.70;51.70;;;;;;5023658;28;20455;-40
2021/04/07 09:36:31;;;;;;;4.03;2.10;;;5.70;51.40;;;;;;5015526;28;20480;-40
2021/04/07 09:38:58;;;;;;;2.57;2.00;;;5.90;51.20;;;;;;5025030;28;20434;-40
2021/04/07 09:41:29;;;;;;;2.07;1.90;;;5.90;50.40;;;;;;5025630;28;20850;-40
2021/04/07 09:43:59;;;;;;;3.93;2.47;;;6.10;50.60;;;;;;5024496;28;20936;-39
2021/04/07 09:46:25;;;;;;;2.73;2.20;;;6.00;50.50;;;;;;5025998;28;20444;-39
2021/04/07 09:48:52;;;;;;;4.07;2.30;;;5.90;49.70;;;;;;5021864;28;20439;-40
2021/04/07 09:51:29;;;;;;;3.57;2.23;;;5.90;49.80;;;;;;5018025;28;20472;-40
2021/04/07 09:54:13;;;;;;;3.27;2.00;;;5.90;49.50;;;;;;5018274;28;20872;-40
2021/04/07 09:56:49;;;;;;;2.00;1.80;;;5.90;49.30;;;;;;5029498;28;20741;-40
2021/04/07 09:59:15;;;;;;;4.90;1.80;;;6.10;49.40;;;;;;5024749;28;20439;-40
2021/04/07 10:01:41;;;;;;;4.07;2.10;;;6.20;48.80;;;;;;5030720;28;20666;-40
2021/04/07 10:04:07;;;;;;;2.20;2.10;;;6.40;48.10;;;;;;5028956;28;20428;-40
2021/04/07 10:06:33;;;;;;;4.33;2.20;;;6.50;48.20;;;;;;5027814;28;21887;-40
2021/04/07 10:09:10;;;;;;;3.73;2.13;;;6.80;48.00;;;;;;5024669;28;20429;-41
2021/04/07 10:11:40;;;;;;;3.90;2.30;;;6.80;47.70;;;;;;5019384;28;20284;-41
2021/04/07 10:14:07;;;;;;;4.53;2.63;;;6.90;47.40;;;;;;5029220;28;20447;-40
2021/04/07 10:16:34;;;;;;;2.40;1.93;;;7.00;46.70;;;;;;5022496;28;21002;-40
2021/04/07 10:19:01;;;;;;;2.83;2.53;;;7.20;46.90;;;;;;5012177;28;20425;-40
2021/04/07 10:21:27;;;;;;;3.80;2.00;;;7.20;45.60;;;;;;5024502;28;20476;-40
2021/04/07 10:23:56;;;;;;;3.10;1.90;;;7.10;44.80;;;;;;5023849;28;20444;-40
2021/04/07 10:26:22;;;;;;;2.10;2.00;;;7.30;45.20;;;;;;5019732;28;20859;-40
2021/04/07 10:28:58;;;;;;;2.87;2.30;;;7.00;44.90;;;;;;5027883;28;20435;-40
2021/04/07 10:31:25;;;;;;;4.13;1.97;;;6.80;45.40;;;;;;5023739;28;20252;-40
2021/04/07 10:34:11;;;;;;;5.87;2.70;;;6.70;45.70;;;;;;5020856;28;20427;-40
2021/04/07 10:36:37;;;;;;;2.87;2.13;;;6.60;47.10;;;;;;5020483;28;20484;-40
2021/04/07 10:39:14;;;;;;;3.17;1.90;;;6.70;47.10;;;;;;5018085;28;20467;-42
2021/04/07 10:41:43;;;;;;;2.60;1.80;;;6.40;47.20;;;;;;5023524;28;20487;-40
2021/04/07 10:44:09;;;;;;;3.37;2.20;;;6.60;47.70;;;;;;5024351;28;20459;-40
2021/04/07 10:46:34;;;;;;;3.17;2.20;;;6.50;48.10;;;;;;5023048;28;20455;-41
2021/04/07 10:49:00;;;;;;;4.53;2.43;;;6.20;48.60;;;;;;5021883;28;20200;-40
2021/04/07 10:51:29;;;;;;;5.10;2.67;;;6.40;48.70;;;;;;5025994;28;20189;-40
2021/04/07 10:53:57;;;;;;;3.27;2.20;;;6.90;49.00;;;;;;5022110;28;20193;-40
2021/04/07 10:56:25;;;;;;;3.53;1.77;;;7.10;48.40;;;;;;5024912;28;20848;-41
2021/04/07 10:58:59;;;;;;;3.07;2.03;;;7.00;47.60;;;;;;5029367;28;20794;-41
2021/04/07 11:01:33;;;;;;;3.07;2.03;;;7.00;47.20;;;;;;5015554;28;20495;-41
2021/04/07 11:04:17;;;;;;;3.50;1.77;;;7.00;47.70;;;;;;5029506;28;20443;-42
2021/04/07 11:06:43;;;;;;;2.50;1.80;;;7.10;47.50;;;;;;5025119;28;20556;-41
2021/04/07 11:09:15;;;;;;;4.77;2.00;;;7.10;46.70;;;;;;5017141;28;20444;-41
2021/04/07 11:11:42;;;;;;;3.93;2.10;;;7.00;46.30;;;;;;5016332;28;20435;-41
2021/04/07 11:14:11;;;;;;;2.13;1.80;;;7.30;46.20;;;;;;5023080;28;20436;-41
2021/04/07 11:16:38;;;;;;;2.40;1.60;;;7.50;45.80;;;;;;5017929;28;21022;-41
2021/04/07 11:19:31;;;;;;;2.90;1.47;;;7.40;45.00;;;;;;5019160;28;20436;-41
2021/04/07 11:21:57;;;;;;;3.47;1.60;;;7.30;44.50;;;;;;5023541;28;20491;-41
2021/04/07 11:24:22;;;;;;;2.13;1.17;;;7.10;44.00;;;;;;5026159;28;20436;-41
2021/04/07 11:26:48;;;;;;;1.63;1.10;;;7.20;43.10;;;;;;5020081;28;20194;-41
2021/04/07 11:29:13;;;;;;;4.67;1.63;;;7.00;42.40;;;;;;5025712;28;20699;-41
2021/04/07 11:31:39;;;;;;;2.17;1.50;;;7.20;42.60;;;;;;5018628;28;20186;-41
2021/04/07 11:34:08;;;;;;;3.47;1.70;;;7.20;42.70;;;;;;5024010;28;20235;-41
2021/04/07 11:39:11;;;;;;;2.10;1.20;;;7.80;42.50;;;;;;5021255;28;20445;-41
2021/04/07 11:46:35;;;;;;;3.13;1.37;;;8.00;41.40;;;;;;5022463;28;20466;-41
2021/04/07 11:49:01;;;;;;;1.50;1.10;;;7.90;40.60;;;;;;5021822;28;20208;-41
2021/04/07 11:51:27;;;;;;;2.83;1.33;;;7.80;39.60;;;;;;5027698;28;20459;-41
2021/04/07 11:53:52;;;;;;;6.23;2.07;;;7.70;38.90;;;;;;5015986;28;20997;-41
2021/04/07 11:56:18;;;;;;;4.80;1.60;;;7.80;39.90;;;;;;5019320;28;20276;-40
2021/04/07 11:58:45;;;;;;;2.60;1.70;;;7.90;40.00;;;;;;5026404;28;20181;-40
2021/04/07 12:01:11;;;;;;;3.87;1.27;;;7.90;37.70;;;;;;5018724;28;20599;-41
2021/04/07 12:03:36;;;;;;;2.53;1.63;;;7.80;38.10;;;;;;5017777;28;20436;-40
2021/04/07 12:06:03;;;;;;;1.13;1.03;;;7.70;37.60;;;;;;5017941;28;21156;-41
2021/04/07 12:08:29;;;;;;;1.87;1.20;;;7.80;37.80;;;;;;5019269;28;20650;-41
2021/04/07 12:10:59;;;;;;;2.97;1.03;;;7.80;37.30;;;;;;5016601;28;20520;-41
2021/04/07 12:13:24;;;;;;;3.03;1.77;;;7.60;37.60;;;;;;5021810;28;20236;-40
2021/04/07 12:15:51;;;;;;;2.50;1.67;;;7.60;38.70;;;;;;5027738;28;20444;-40
2021/04/07 12:18:17;;;;;;;3.63;1.40;;;7.40;38.70;;;;;;5027746;28;20702;-41
2021/04/07 12:20:42;;;;;;;2.50;1.87;;;7.50;39.30;;;;;;5018300;28;20425;-41
2021/04/07 12:23:08;;;;;;;2.30;1.57;;;7.40;39.70;;;;;;5016121;28;20239;-40
2021/04/07 12:25:34;;;;;;;4.60;1.30;;;7.40;40.10;;;;;;5019646;28;20570;-41
2021/04/07 12:27:59;;;;;;;5.10;1.40;;;7.40;40.60;;;;;;5024540;28;20990;-41
2021/04/07 12:30:25;;;;;;;1.77;1.50;;;7.20;40.60;;;;;;5024229;28;20204;-42
2021/04/07 12:32:52;;;;;;;3.93;1.60;;;7.60;41.30;;;;;;5026830;28;20224;-42
2021/04/07 12:35:18;;;;;;;4.33;1.57;;;7.60;41.60;;;;;;5016090;28;20435;-44
2021/04/07 12:37:44;;;;;;;2.13;1.80;;;7.40;42.00;;;;;;5026259;28;20467;-42
2021/04/07 12:40:11;;;;;;;4.07;1.60;;;7.30;42.80;;;;;;5027487;28;20436;-43
2021/04/07 12:42:37;;;;;;;3.70;1.73;;;7.00;43.50;;;;;;5025191;28;20490;-42
2021/04/07 12:45:05;;;;;;;2.40;1.90;;;7.10;44.10;;;;;;5023002;28;20440;-42
2021/04/07 12:47:30;;;;;;;1.90;1.40;;;7.20;44.40;;;;;;5027149;28;20190;-42
2021/04/07 12:49:56;;;;;;;3.07;1.50;;;6.90;44.50;;;;;;5026811;28;20539;-42
2021/04/07 12:52:21;;;;;;;3.67;2.53;;;7.00;45.20;;;;;;5029066;28;20190;-42
2021/04/07 12:54:47;;;;;;;2.10;1.50;;;7.20;45.30;;;;;;5022393;28;20241;-42
2021/04/07 12:57:13;;;;;;;1.90;1.53;;;7.10;44.20;;;;;;5012105;28;20186;-42
2021/04/07 12:59:38;;;;;;;4.57;1.23;;;7.10;44.00;;;;;;5024871;28;20966;-42
2021/04/07 13:02:04;;;;;;;2.60;1.70;;;7.30;44.30;;;;;;5021126;28;20253;-42
2021/04/07 13:04:30;;;;;;;2.53;1.40;;;7.30;44.00;;;;;;5027736;28;20955;-42
2021/04/07 13:06:55;;;;;;;4.27;1.10;;;7.10;43.50;;;;;;5025391;28;20671;-42
2021/04/07 13:09:21;;;;;;;2.30;1.33;;;7.00;44.10;;;;;;5025148;28;20189;-42